sensor_id;sensor_type;location;lat;lon;timestamp;temperature;humidity
3727;DHT22;1879;45.876;12.300;2022-10-16T00:01:16;19.00;99.90
3727;DHT22;1879;45.876;12.300;2022-10-16T00:03:44;19.00;99.90
3727;DHT22;1879;45.876;12.300;2022-10-16T00:06:12;19.00;99.90
3727;DHT22;1879;45.876;12.300;2022-10-16T00:08:40;18.90;99.90
3727;DHT22;1879;45.876;12.300;2022-10-16T00:11:09;18.90;99.90
3727;DHT22;1879;45.876;12.300;2022-10-16T00:13:39;18.80;99.90
3727;DHT22;1879;45.876;12.300;2022-10-16T00:16:07;18.70;99.90
3727;DHT22;1879;45.876;12.300;2022-10-16T00:18:35;18.70;99.90
3727;DHT22;1879;45.876;12.300;2022-10-16T00:21:03;18.70;99.90
3727;DHT22;1879;45.876;12.300;2022-10-16T00:23:31;18.70;99.90
3727;DHT22;1879;45.876;12.300;2022-10-16T00:26:00;18.70;99.90
3727;DHT22;1879;45.876;12.300;2022-10-16T00:28:27;18.60;99.90
3727;DHT22;1879;45.876;12.300;2022-10-16T00:30:56;18.60;99.90
3727;DHT22;1879;45.876;12.300;2022-10-16T00:33:24;18.50;99.90
3727;DHT22;1879;45.876;12.300;2022-10-16T00:35:51;18.50;99.90
3727;DHT22;1879;45.876;12.300;2022-10-16T00:38:18;18.60;99.90
3727;DHT22;1879;45.876;12.300;2022-10-16T00:40:45;18.50;99.90
3727;DHT22;1879;45.876;12.300;2022-10-16T00:43:34;18.50;99.90
3727;DHT22;1879;45.876;12.300;2022-10-16T00:46:05;18.60;99.90
3727;DHT22;1879;45.876;12.300;2022-10-16T00:48:32;18.60;99.90
3727;DHT22;1879;45.876;12.300;2022-10-16T00:50:59;18.60;99.90
3727;DHT22;1879;45.876;12.300;2022-10-16T00:53:27;18.60;99.90
3727;DHT22;1879;45.876;12.300;2022-10-16T00:55:54;18.60;99.90
3727;DHT22;1879;45.876;12.300;2022-10-16T00:58:22;18.60;99.90
3727;DHT22;1879;45.876;12.300;2022-10-16T01:00:49;18.60;99.90
3727;DHT22;1879;45.876;12.300;2022-10-16T01:03:28;18.60;99.90
3727;DHT22;1879;45.876;12.300;2022-10-16T01:06:05;18.60;99.90
3727;DHT22;1879;45.876;12.300;2022-10-16T01:08:43;18.50;99.90
3727;DHT22;1879;45.876;12.300;2022-10-16T01:11:19;18.40;99.90
3727;DHT22;1879;45.876;12.300;2022-10-16T01:13:53;18.40;99.90
3727;DHT22;1879;45.876;12.300;2022-10-16T01:16:26;18.40;99.90
3727;DHT22;1879;45.876;12.300;2022-10-16T01:19:02;18.40;99.90
3727;DHT22;1879;45.876;12.300;2022-10-16T01:21:36;18.40;99.90
3727;DHT22;1879;45.876;12.300;2022-10-16T01:24:11;18.40;99.90
3727;DHT22;1879;45.876;12.300;2022-10-16T01:29:26;18.30;99.90
3727;DHT22;1879;45.876;12.300;2022-10-16T01:31:59;18.30;99.90
3727;DHT22;1879;45.876;12.300;2022-10-16T01:34:32;18.20;99.90
3727;DHT22;1879;45.876;12.300;2022-10-16T01:37:04;18.20;99.90
3727;DHT22;1879;45.876;12.300;2022-10-16T01:39:34;18.20;99.90
3727;DHT22;1879;45.876;12.300;2022-10-16T01:42:06;18.20;99.90
3727;DHT22;1879;45.876;12.300;2022-10-16T01:44:37;18.20;99.90
3727;DHT22;1879;45.876;12.300;2022-10-16T01:47:08;18.10;99.90
3727;DHT22;1879;45.876;12.300;2022-10-16T01:49:37;18.10;99.90
3727;DHT22;1879;45.876;12.300;2022-10-16T01:52:08;18.10;99.90
3727;DHT22;1879;45.876;12.300;2022-10-16T01:54:39;18.10;99.90
3727;DHT22;1879;45.876;12.300;2022-10-16T01:57:08;18.00;99.90
3727;DHT22;1879;45.876;12.300;2022-10-16T01:59:43;18.00;99.90
3727;DHT22;1879;45.876;12.300;2022-10-16T02:02:11;18.00;99.90
3727;DHT22;1879;45.876;12.300;2022-10-16T02:04:43;18.00;99.90
3727;DHT22;1879;45.876;12.300;2022-10-16T02:07:10;17.90;99.90
3727;DHT22;1879;45.876;12.300;2022-10-16T02:09:38;18.00;99.90
3727;DHT22;1879;45.876;12.300;2022-10-16T02:12:10;17.90;99.90
3727;DHT22;1879;45.876;12.300;2022-10-16T02:14:41;17.90;99.90
3727;DHT22;1879;45.876;12.300;2022-10-16T02:17:13;17.90;99.90
3727;DHT22;1879;45.876;12.300;2022-10-16T02:19:40;17.90;99.90
3727;DHT22;1879;45.876;12.300;2022-10-16T02:22:10;17.90;99.90
3727;DHT22;1879;45.876;12.300;2022-10-16T02:24:49;17.90;99.90
3727;DHT22;1879;45.876;12.300;2022-10-16T02:27:20;18.00;99.90
3727;DHT22;1879;45.876;12.300;2022-10-16T02:29:55;17.90;99.90
3727;DHT22;1879;45.876;12.300;2022-10-16T02:32:28;17.90;99.90
3727;DHT22;1879;45.876;12.300;2022-10-16T02:34:58;18.00;99.90
3727;DHT22;1879;45.876;12.300;2022-10-16T02:37:26;18.00;99.90
3727;DHT22;1879;45.876;12.300;2022-10-16T02:39:54;18.10;99.90
3727;DHT22;1879;45.876;12.300;2022-10-16T02:42:28;18.10;99.90
3727;DHT22;1879;45.876;12.300;2022-10-16T02:44:56;18.10;99.90
3727;DHT22;1879;45.876;12.300;2022-10-16T02:47:23;18.10;99.90
3727;DHT22;1879;45.876;12.300;2022-10-16T02:49:50;18.00;99.90
3727;DHT22;1879;45.876;12.300;2022-10-16T02:52:17;18.00;99.90
3727;DHT22;1879;45.876;12.300;2022-10-16T02:54:44;18.00;99.90
3727;DHT22;1879;45.876;12.300;2022-10-16T02:57:11;17.90;99.90
3727;DHT22;1879;45.876;12.300;2022-10-16T02:59:38;17.90;99.90
3727;DHT22;1879;45.876;12.300;2022-10-16T03:02:07;17.90;99.90
3727;DHT22;1879;45.876;12.300;2022-10-16T03:04:34;18.00;99.90
3727;DHT22;1879;45.876;12.300;2022-10-16T03:07:01;17.90;99.90
3727;DHT22;1879;45.876;12.300;2022-10-16T03:09:29;17.90;99.90
3727;DHT22;1879;45.876;12.300;2022-10-16T03:11:56;17.90;99.90
3727;DHT22;1879;45.876;12.300;2022-10-16T03:14:23;17.90;99.90
3727;DHT22;1879;45.876;12.300;2022-10-16T03:16:50;17.90;99.90
3727;DHT22;1879;45.876;12.300;2022-10-16T03:19:18;17.90;99.90
3727;DHT22;1879;45.876;12.300;2022-10-16T03:21:45;17.90;99.90
3727;DHT22;1879;45.876;12.300;2022-10-16T03:24:12;17.80;99.90
3727;DHT22;1879;45.876;12.300;2022-10-16T03:26:39;17.80;99.90
3727;DHT22;1879;45.876;12.300;2022-10-16T03:29:07;17.90;99.90
3727;DHT22;1879;45.876;12.300;2022-10-16T03:31:34;17.90;99.90
3727;DHT22;1879;45.876;12.300;2022-10-16T03:34:01;18.00;99.90
3727;DHT22;1879;45.876;12.300;2022-10-16T03:36:30;18.00;99.90
3727;DHT22;1879;45.876;12.300;2022-10-16T03:38:57;17.90;99.90
3727;DHT22;1879;45.876;12.300;2022-10-16T03:41:24;17.90;99.90
3727;DHT22;1879;45.876;12.300;2022-10-16T03:43:51;18.00;99.90
3727;DHT22;1879;45.876;12.300;2022-10-16T03:46:18;18.00;99.90
3727;DHT22;1879;45.876;12.300;2022-10-16T03:48:45;18.00;99.90
3727;DHT22;1879;45.876;12.300;2022-10-16T03:51:12;18.00;99.90
3727;DHT22;1879;45.876;12.300;2022-10-16T03:53:40;17.90;99.90
3727;DHT22;1879;45.876;12.300;2022-10-16T03:56:07;17.90;99.90
3727;DHT22;1879;45.876;12.300;2022-10-16T03:58:34;18.00;99.90
3727;DHT22;1879;45.876;12.300;2022-10-16T04:01:01;18.00;99.90
3727;DHT22;1879;45.876;12.300;2022-10-16T04:03:28;18.00;99.90
3727;DHT22;1879;45.876;12.300;2022-10-16T04:05:55;17.90;99.90
3727;DHT22;1879;45.876;12.300;2022-10-16T04:08:22;17.90;99.90
3727;DHT22;1879;45.876;12.300;2022-10-16T04:10:51;17.90;99.90
3727;DHT22;1879;45.876;12.300;2022-10-16T04:13:18;17.80;99.90
3727;DHT22;1879;45.876;12.300;2022-10-16T04:15:45;17.80;99.90
3727;DHT22;1879;45.876;12.300;2022-10-16T04:18:12;17.80;99.90
3727;DHT22;1879;45.876;12.300;2022-10-16T04:20:40;17.80;99.90
3727;DHT22;1879;45.876;12.300;2022-10-16T04:23:07;17.80;99.90
3727;DHT22;1879;45.876;12.300;2022-10-16T04:25:34;17.80;99.90
3727;DHT22;1879;45.876;12.300;2022-10-16T04:28:03;17.80;99.90
3727;DHT22;1879;45.876;12.300;2022-10-16T04:30:30;17.80;99.90
3727;DHT22;1879;45.876;12.300;2022-10-16T04:32:57;17.70;99.90
3727;DHT22;1879;45.876;12.300;2022-10-16T04:35:24;17.70;99.90
3727;DHT22;1879;45.876;12.300;2022-10-16T04:37:51;17.60;99.90
3727;DHT22;1879;45.876;12.300;2022-10-16T04:40:18;17.60;99.90
3727;DHT22;1879;45.876;12.300;2022-10-16T04:42:45;17.60;99.90
3727;DHT22;1879;45.876;12.300;2022-10-16T04:45:13;17.50;99.90
3727;DHT22;1879;45.876;12.300;2022-10-16T04:47:40;17.50;99.90
3727;DHT22;1879;45.876;12.300;2022-10-16T04:50:08;17.40;99.90
3727;DHT22;1879;45.876;12.300;2022-10-16T04:52:35;17.40;99.90
3727;DHT22;1879;45.876;12.300;2022-10-16T04:55:02;17.40;99.90
3727;DHT22;1879;45.876;12.300;2022-10-16T04:57:35;17.40;99.90
3727;DHT22;1879;45.876;12.300;2022-10-16T05:00:02;17.30;99.90
3727;DHT22;1879;45.876;12.300;2022-10-16T05:02:31;17.30;99.90
3727;DHT22;1879;45.876;12.300;2022-10-16T05:04:58;17.30;99.90
3727;DHT22;1879;45.876;12.300;2022-10-16T05:07:25;17.30;99.90
3727;DHT22;1879;45.876;12.300;2022-10-16T05:09:52;17.30;99.90
3727;DHT22;1879;45.876;12.300;2022-10-16T05:12:19;17.30;99.90
3727;DHT22;1879;45.876;12.300;2022-10-16T05:14:46;17.30;99.90
3727;DHT22;1879;45.876;12.300;2022-10-16T05:17:13;17.30;99.90
3727;DHT22;1879;45.876;12.300;2022-10-16T05:19:41;17.30;99.90
3727;DHT22;1879;45.876;12.300;2022-10-16T05:22:08;17.40;99.90
3727;DHT22;1879;45.876;12.300;2022-10-16T05:24:35;17.30;99.90
3727;DHT22;1879;45.876;12.300;2022-10-16T05:27:03;17.30;99.90
3727;DHT22;1879;45.876;12.300;2022-10-16T05:29:30;17.30;99.90
3727;DHT22;1879;45.876;12.300;2022-10-16T05:31:57;17.30;99.90
3727;DHT22;1879;45.876;12.300;2022-10-16T05:34:24;17.30;99.90
3727;DHT22;1879;45.876;12.300;2022-10-16T05:36:53;17.30;99.90
3727;DHT22;1879;45.876;12.300;2022-10-16T05:39:20;17.30;99.90
3727;DHT22;1879;45.876;12.300;2022-10-16T05:41:49;17.20;99.90
3727;DHT22;1879;45.876;12.300;2022-10-16T05:44:16;17.20;99.90
3727;DHT22;1879;45.876;12.300;2022-10-16T05:46:43;17.10;99.90
3727;DHT22;1879;45.876;12.300;2022-10-16T05:49:10;17.10;99.90
3727;DHT22;1879;45.876;12.300;2022-10-16T05:51:37;17.00;99.90
3727;DHT22;1879;45.876;12.300;2022-10-16T05:54:05;17.00;99.90
3727;DHT22;1879;45.876;12.300;2022-10-16T05:56:32;17.00;99.90
3727;DHT22;1879;45.876;12.300;2022-10-16T05:58:59;17.00;99.90
3727;DHT22;1879;45.876;12.300;2022-10-16T06:01:26;17.00;99.90
3727;DHT22;1879;45.876;12.300;2022-10-16T06:03:53;17.10;99.90
3727;DHT22;1879;45.876;12.300;2022-10-16T06:06:22;17.10;99.90
3727;DHT22;1879;45.876;12.300;2022-10-16T06:08:52;17.10;99.90
3727;DHT22;1879;45.876;12.300;2022-10-16T06:11:24;17.10;99.90
3727;DHT22;1879;45.876;12.300;2022-10-16T06:13:52;17.00;99.90
3727;DHT22;1879;45.876;12.300;2022-10-16T06:16:19;17.00;99.90
3727;DHT22;1879;45.876;12.300;2022-10-16T06:18:46;17.00;99.90
3727;DHT22;1879;45.876;12.300;2022-10-16T06:21:17;17.10;99.90
3727;DHT22;1879;45.876;12.300;2022-10-16T06:23:45;17.10;99.90
3727;DHT22;1879;45.876;12.300;2022-10-16T06:26:14;17.10;99.90
3727;DHT22;1879;45.876;12.300;2022-10-16T06:28:44;17.10;99.90
3727;DHT22;1879;45.876;12.300;2022-10-16T06:31:12;17.10;99.90
3727;DHT22;1879;45.876;12.300;2022-10-16T06:33:40;17.10;99.90
3727;DHT22;1879;45.876;12.300;2022-10-16T06:36:09;17.10;99.90
3727;DHT22;1879;45.876;12.300;2022-10-16T06:38:36;17.10;99.90
3727;DHT22;1879;45.876;12.300;2022-10-16T06:41:04;17.10;99.90
3727;DHT22;1879;45.876;12.300;2022-10-16T06:43:31;17.10;99.90
3727;DHT22;1879;45.876;12.300;2022-10-16T06:46:03;17.20;99.90
3727;DHT22;1879;45.876;12.300;2022-10-16T06:48:31;17.20;99.90
3727;DHT22;1879;45.876;12.300;2022-10-16T06:50:59;17.20;99.90
3727;DHT22;1879;45.876;12.300;2022-10-16T06:53:28;17.30;99.90
3727;DHT22;1879;45.876;12.300;2022-10-16T06:55:55;17.30;99.90
3727;DHT22;1879;45.876;12.300;2022-10-16T06:58:22;17.30;99.90
3727;DHT22;1879;45.876;12.300;2022-10-16T07:00:55;17.30;99.90
3727;DHT22;1879;45.876;12.300;2022-10-16T07:03:24;17.40;99.90
3727;DHT22;1879;45.876;12.300;2022-10-16T07:05:51;17.40;99.90
3727;DHT22;1879;45.876;12.300;2022-10-16T07:08:18;17.40;99.90
3727;DHT22;1879;45.876;12.300;2022-10-16T07:10:45;17.50;99.90
3727;DHT22;1879;45.876;12.300;2022-10-16T07:13:12;17.50;99.90
3727;DHT22;1879;45.876;12.300;2022-10-16T07:15:40;17.60;99.90
3727;DHT22;1879;45.876;12.300;2022-10-16T07:18:07;17.60;99.90
3727;DHT22;1879;45.876;12.300;2022-10-16T07:20:35;17.70;99.90
3727;DHT22;1879;45.876;12.300;2022-10-16T07:23:03;17.80;99.90
3727;DHT22;1879;45.876;12.300;2022-10-16T07:25:30;17.80;99.90
3727;DHT22;1879;45.876;12.300;2022-10-16T07:27:57;17.80;99.90
3727;DHT22;1879;45.876;12.300;2022-10-16T07:30:24;17.90;99.90
3727;DHT22;1879;45.876;12.300;2022-10-16T07:32:51;18.00;99.90
3727;DHT22;1879;45.876;12.300;2022-10-16T07:35:18;18.00;99.90
3727;DHT22;1879;45.876;12.300;2022-10-16T07:37:47;18.00;99.90
3727;DHT22;1879;45.876;12.300;2022-10-16T07:40:14;18.10;99.90
3727;DHT22;1879;45.876;12.300;2022-10-16T07:42:41;18.10;99.90
3727;DHT22;1879;45.876;12.300;2022-10-16T07:45:08;18.20;99.90
3727;DHT22;1879;45.876;12.300;2022-10-16T07:47:35;18.30;99.90
3727;DHT22;1879;45.876;12.300;2022-10-16T07:50:03;18.30;99.90
3727;DHT22;1879;45.876;12.300;2022-10-16T07:52:30;18.40;99.90
3727;DHT22;1879;45.876;12.300;2022-10-16T07:54:58;18.40;99.90
3727;DHT22;1879;45.876;12.300;2022-10-16T07:57:25;18.40;99.90
3727;DHT22;1879;45.876;12.300;2022-10-16T07:59:53;18.50;99.90
3727;DHT22;1879;45.876;12.300;2022-10-16T08:02:20;18.50;99.90
3727;DHT22;1879;45.876;12.300;2022-10-16T08:04:47;18.60;99.90
3727;DHT22;1879;45.876;12.300;2022-10-16T08:07:14;18.70;99.90
3727;DHT22;1879;45.876;12.300;2022-10-16T08:09:41;18.70;99.90
3727;DHT22;1879;45.876;12.300;2022-10-16T08:12:09;18.80;99.90
3727;DHT22;1879;45.876;12.300;2022-10-16T08:14:36;18.90;99.90
3727;DHT22;1879;45.876;12.300;2022-10-16T08:17:03;19.00;99.90
3727;DHT22;1879;45.876;12.300;2022-10-16T08:19:30;19.10;99.90
3727;DHT22;1879;45.876;12.300;2022-10-16T08:22:00;19.10;99.90
3727;DHT22;1879;45.876;12.300;2022-10-16T08:24:27;19.30;99.90
3727;DHT22;1879;45.876;12.300;2022-10-16T08:26:56;19.30;99.90
3727;DHT22;1879;45.876;12.300;2022-10-16T08:29:24;19.40;99.90
3727;DHT22;1879;45.876;12.300;2022-10-16T08:31:51;19.50;99.90
3727;DHT22;1879;45.876;12.300;2022-10-16T08:34:18;19.60;99.90
3727;DHT22;1879;45.876;12.300;2022-10-16T08:36:45;19.60;99.90
3727;DHT22;1879;45.876;12.300;2022-10-16T08:39:12;19.70;99.90
3727;DHT22;1879;45.876;12.300;2022-10-16T08:42:11;19.70;99.90
3727;DHT22;1879;45.876;12.300;2022-10-16T08:47:58;19.90;99.90
3727;DHT22;1879;45.876;12.300;2022-10-16T08:50:29;20.00;99.90
3727;DHT22;1879;45.876;12.300;2022-10-16T08:52:57;20.10;99.90
3727;DHT22;1879;45.876;12.300;2022-10-16T08:55:38;20.20;99.90
3727;DHT22;1879;45.876;12.300;2022-10-16T08:58:15;20.20;99.90
3727;DHT22;1879;45.876;12.300;2022-10-16T09:00:45;20.30;99.90
3727;DHT22;1879;45.876;12.300;2022-10-16T09:03:21;20.30;99.90
3727;DHT22;1879;45.876;12.300;2022-10-16T09:06:01;20.50;99.90
3727;DHT22;1879;45.876;12.300;2022-10-16T09:08:42;20.50;99.90
3727;DHT22;1879;45.876;12.300;2022-10-16T09:11:17;20.70;99.90
3727;DHT22;1879;45.876;12.300;2022-10-16T09:13:50;20.80;99.90
3727;DHT22;1879;45.876;12.300;2022-10-16T09:16:24;20.80;99.90
3727;DHT22;1879;45.876;12.300;2022-10-16T09:19:00;20.90;99.90
3727;DHT22;1879;45.876;12.300;2022-10-16T09:21:31;21.00;99.90
3727;DHT22;1879;45.876;12.300;2022-10-16T09:24:07;21.00;99.90
3727;DHT22;1879;45.876;12.300;2022-10-16T09:26:37;21.20;99.90
3727;DHT22;1879;45.876;12.300;2022-10-16T09:29:04;21.30;99.90
3727;DHT22;1879;45.876;12.300;2022-10-16T09:31:31;21.40;99.90
3727;DHT22;1879;45.876;12.300;2022-10-16T09:34:02;21.50;99.90
3727;DHT22;1879;45.876;12.300;2022-10-16T09:36:36;21.50;99.90
3727;DHT22;1879;45.876;12.300;2022-10-16T09:39:07;21.60;99.90
3727;DHT22;1879;45.876;12.300;2022-10-16T09:41:35;21.70;99.90
3727;DHT22;1879;45.876;12.300;2022-10-16T09:44:06;21.90;99.90
3727;DHT22;1879;45.876;12.300;2022-10-16T09:46:41;22.00;99.90
3727;DHT22;1879;45.876;12.300;2022-10-16T09:49:21;22.00;99.90
3727;DHT22;1879;45.876;12.300;2022-10-16T09:51:49;22.00;99.90
3727;DHT22;1879;45.876;12.300;2022-10-16T09:54:18;22.10;99.90
3727;DHT22;1879;45.876;12.300;2022-10-16T09:56:45;22.30;99.90
3727;DHT22;1879;45.876;12.300;2022-10-16T09:59:19;22.40;99.90
3727;DHT22;1879;45.876;12.300;2022-10-16T10:01:47;22.50;99.90
3727;DHT22;1879;45.876;12.300;2022-10-16T10:04:15;22.60;99.90
3727;DHT22;1879;45.876;12.300;2022-10-16T10:06:45;22.80;99.90
3727;DHT22;1879;45.876;12.300;2022-10-16T10:09:20;22.90;99.90
3727;DHT22;1879;45.876;12.300;2022-10-16T10:11:53;22.90;99.90
3727;DHT22;1879;45.876;12.300;2022-10-16T10:14:26;23.00;99.90
3727;DHT22;1879;45.876;12.300;2022-10-16T10:17:09;23.00;99.90
3727;DHT22;1879;45.876;12.300;2022-10-16T10:19:41;23.20;99.90
3727;DHT22;1879;45.876;12.300;2022-10-16T10:22:28;23.40;99.90
3727;DHT22;1879;45.876;12.300;2022-10-16T10:25:15;23.50;99.90
3727;DHT22;1879;45.876;12.300;2022-10-16T10:27:57;23.50;99.90
3727;DHT22;1879;45.876;12.300;2022-10-16T10:30:32;23.60;99.90
3727;DHT22;1879;45.876;12.300;2022-10-16T10:33:28;23.80;99.90
3727;DHT22;1879;45.876;12.300;2022-10-16T10:36:01;23.80;99.90
3727;DHT22;1879;45.876;12.300;2022-10-16T10:38:39;23.80;99.90
3727;DHT22;1879;45.876;12.300;2022-10-16T10:41:51;23.70;99.90
3727;DHT22;1879;45.876;12.300;2022-10-16T10:44:32;23.70;99.90
3727;DHT22;1879;45.876;12.300;2022-10-16T10:47:06;23.80;99.90
3727;DHT22;1879;45.876;12.300;2022-10-16T10:49:44;24.00;99.90
3727;DHT22;1879;45.876;12.300;2022-10-16T10:52:34;24.20;99.90
3727;DHT22;1879;45.876;12.300;2022-10-16T10:55:17;24.20;99.90
3727;DHT22;1879;45.876;12.300;2022-10-16T10:58:00;24.40;99.90
3727;DHT22;1879;45.876;12.300;2022-10-16T11:00:42;24.50;99.90
3727;DHT22;1879;45.876;12.300;2022-10-16T11:03:20;24.60;99.90
3727;DHT22;1879;45.876;12.300;2022-10-16T11:05:54;24.80;99.90
3727;DHT22;1879;45.876;12.300;2022-10-16T11:08:27;25.40;99.90
3727;DHT22;1879;45.876;12.300;2022-10-16T11:11:02;26.00;99.90
3727;DHT22;1879;45.876;12.300;2022-10-16T11:13:33;26.50;99.50
3727;DHT22;1879;45.876;12.300;2022-10-16T11:16:10;26.90;98.50
3727;DHT22;1879;45.876;12.300;2022-10-16T11:18:46;27.50;97.40
3727;DHT22;1879;45.876;12.300;2022-10-16T11:21:18;28.20;96.70
3727;DHT22;1879;45.876;12.300;2022-10-16T11:23:52;28.50;95.80
3727;DHT22;1879;45.876;12.300;2022-10-16T11:26:26;28.50;94.40
3727;DHT22;1879;45.876;12.300;2022-10-16T11:28:56;28.70;93.50
3727;DHT22;1879;45.876;12.300;2022-10-16T11:31:29;28.90;93.80
3727;DHT22;1879;45.876;12.300;2022-10-16T11:34:04;29.40;92.60
3727;DHT22;1879;45.876;12.300;2022-10-16T11:36:36;29.90;91.50
3727;DHT22;1879;45.876;12.300;2022-10-16T11:39:16;29.80;91.10
3727;DHT22;1879;45.876;12.300;2022-10-16T11:41:49;29.60;90.40
3727;DHT22;1879;45.876;12.300;2022-10-16T11:44:33;29.10;90.30
3727;DHT22;1879;45.876;12.300;2022-10-16T11:47:08;29.40;89.40
3727;DHT22;1879;45.876;12.300;2022-10-16T11:49:39;29.90;88.90
3727;DHT22;1879;45.876;12.300;2022-10-16T11:52:12;30.10;88.20
3727;DHT22;1879;45.876;12.300;2022-10-16T11:54:45;30.50;86.60
3727;DHT22;1879;45.876;12.300;2022-10-16T11:57:18;30.20;85.80
3727;DHT22;1879;45.876;12.300;2022-10-16T11:59:50;29.40;85.60
3727;DHT22;1879;45.876;12.300;2022-10-16T12:02:37;28.20;87.50
3727;DHT22;1879;45.876;12.300;2022-10-16T12:05:18;27.50;90.00
3727;DHT22;1879;45.876;12.300;2022-10-16T12:07:51;27.00;90.80
3727;DHT22;1879;45.876;12.300;2022-10-16T12:10:23;26.80;91.10
3727;DHT22;1879;45.876;12.300;2022-10-16T12:12:52;27.50;91.30
3727;DHT22;1879;45.876;12.300;2022-10-16T12:15:23;27.60;90.70
3727;DHT22;1879;45.876;12.300;2022-10-16T12:17:51;27.40;90.80
3727;DHT22;1879;45.876;12.300;2022-10-16T12:20:24;27.00;92.00
3727;DHT22;1879;45.876;12.300;2022-10-16T12:22:53;27.20;92.30
3727;DHT22;1879;45.876;12.300;2022-10-16T12:25:24;28.00;92.30
3727;DHT22;1879;45.876;12.300;2022-10-16T12:27:58;28.00;91.50
3727;DHT22;1879;45.876;12.300;2022-10-16T12:30:27;27.60;91.30
3727;DHT22;1879;45.876;12.300;2022-10-16T12:32:56;27.20;91.90
3727;DHT22;1879;45.876;12.300;2022-10-16T12:35:27;26.90;92.30
3727;DHT22;1879;45.876;12.300;2022-10-16T12:38:07;26.60;92.50
3727;DHT22;1879;45.876;12.300;2022-10-16T12:40:37;26.40;93.00
3727;DHT22;1879;45.876;12.300;2022-10-16T12:43:28;26.90;93.00
3727;DHT22;1879;45.876;12.300;2022-10-16T12:46:04;27.60;91.80
3727;DHT22;1879;45.876;12.300;2022-10-16T12:48:32;27.20;91.40
3727;DHT22;1879;45.876;12.300;2022-10-16T12:51:10;27.20;91.70
3727;DHT22;1879;45.876;12.300;2022-10-16T12:53:37;27.80;91.00
3727;DHT22;1879;45.876;12.300;2022-10-16T12:56:16;27.50;91.20
3727;DHT22;1879;45.876;12.300;2022-10-16T12:59:08;27.00;91.10
3727;DHT22;1879;45.876;12.300;2022-10-16T13:01:45;26.70;91.70
3727;DHT22;1879;45.876;12.300;2022-10-16T13:07:14;28.80;90.10
3727;DHT22;1879;45.876;12.300;2022-10-16T13:09:53;29.80;88.40
3727;DHT22;1879;45.876;12.300;2022-10-16T13:12:34;30.20;86.10
3727;DHT22;1879;45.876;12.300;2022-10-16T13:18:06;30.30;84.40
3727;DHT22;1879;45.876;12.300;2022-10-16T13:20:46;30.60;82.90
3727;DHT22;1879;45.876;12.300;2022-10-16T13:23:23;30.50;83.60
3727;DHT22;1879;45.876;12.300;2022-10-16T13:26:01;29.60;82.70
3727;DHT22;1879;45.876;12.300;2022-10-16T13:28:34;28.70;85.00
3727;DHT22;1879;45.876;12.300;2022-10-16T13:31:05;28.00;86.10
3727;DHT22;1879;45.876;12.300;2022-10-16T13:33:34;28.00;88.00
3727;DHT22;1879;45.876;12.300;2022-10-16T13:36:03;28.60;87.40
3727;DHT22;1879;45.876;12.300;2022-10-16T13:38:32;29.40;86.50
3727;DHT22;1879;45.876;12.300;2022-10-16T13:41:00;29.40;84.50
3727;DHT22;1879;45.876;12.300;2022-10-16T13:43:31;29.40;85.10
3727;DHT22;1879;45.876;12.300;2022-10-16T13:46:01;29.60;84.80
3727;DHT22;1879;45.876;12.300;2022-10-16T13:48:30;29.20;84.20
3727;DHT22;1879;45.876;12.300;2022-10-16T13:51:02;28.60;84.90
3727;DHT22;1879;45.876;12.300;2022-10-16T13:53:31;27.90;86.30
3727;DHT22;1879;45.876;12.300;2022-10-16T13:55:58;27.10;87.50
3727;DHT22;1879;45.876;12.300;2022-10-16T13:58:26;26.50;89.00
3727;DHT22;1879;45.876;12.300;2022-10-16T14:00:56;26.20;89.70
3727;DHT22;1879;45.876;12.300;2022-10-16T14:03:24;25.90;90.20
3727;DHT22;1879;45.876;12.300;2022-10-16T14:05:54;25.70;90.90
3727;DHT22;1879;45.876;12.300;2022-10-16T14:08:22;25.50;91.40
3727;DHT22;1879;45.876;12.300;2022-10-16T14:10:53;25.30;91.80
3727;DHT22;1879;45.876;12.300;2022-10-16T14:13:28;25.00;92.30
3727;DHT22;1879;45.876;12.300;2022-10-16T14:15:56;24.80;93.10
3727;DHT22;1879;45.876;12.300;2022-10-16T14:18:25;24.70;93.20
3727;DHT22;1879;45.876;12.300;2022-10-16T14:21:03;24.60;94.20
3727;DHT22;1879;45.876;12.300;2022-10-16T14:23:32;24.60;94.50
3727;DHT22;1879;45.876;12.300;2022-10-16T14:26:13;24.50;95.00
3727;DHT22;1879;45.876;12.300;2022-10-16T14:28:41;24.50;95.30
3727;DHT22;1879;45.876;12.300;2022-10-16T14:31:26;24.40;95.70
3727;DHT22;1879;45.876;12.300;2022-10-16T14:33:54;24.40;96.00
3727;DHT22;1879;45.876;12.300;2022-10-16T14:36:24;24.40;95.90
3727;DHT22;1879;45.876;12.300;2022-10-16T14:38:59;24.30;96.90
3727;DHT22;1879;45.876;12.300;2022-10-16T14:41:28;24.30;96.70
3727;DHT22;1879;45.876;12.300;2022-10-16T14:43:56;24.40;96.40
3727;DHT22;1879;45.876;12.300;2022-10-16T14:46:33;24.40;96.50
3727;DHT22;1879;45.876;12.300;2022-10-16T14:49:05;24.40;96.60
3727;DHT22;1879;45.876;12.300;2022-10-16T14:51:41;24.40;96.60
3727;DHT22;1879;45.876;12.300;2022-10-16T14:54:10;24.40;96.60
3727;DHT22;1879;45.876;12.300;2022-10-16T14:56:44;24.30;96.60
3727;DHT22;1879;45.876;12.300;2022-10-16T14:59:15;24.30;96.90
3727;DHT22;1879;45.876;12.300;2022-10-16T15:01:43;24.20;97.20
3727;DHT22;1879;45.876;12.300;2022-10-16T15:04:12;24.10;97.00
3727;DHT22;1879;45.876;12.300;2022-10-16T15:06:40;24.00;97.00
3727;DHT22;1879;45.876;12.300;2022-10-16T15:09:08;23.90;97.50
3727;DHT22;1879;45.876;12.300;2022-10-16T15:11:35;23.90;98.10
3727;DHT22;1879;45.876;12.300;2022-10-16T15:14:03;23.80;98.10
3727;DHT22;1879;45.876;12.300;2022-10-16T15:16:30;23.70;98.40
3727;DHT22;1879;45.876;12.300;2022-10-16T15:18:58;23.60;98.70
3727;DHT22;1879;45.876;12.300;2022-10-16T15:21:28;23.60;99.10
3727;DHT22;1879;45.876;12.300;2022-10-16T15:23:57;23.60;99.20
3727;DHT22;1879;45.876;12.300;2022-10-16T15:26:25;23.50;99.00
3727;DHT22;1879;45.876;12.300;2022-10-16T15:28:53;23.40;99.40
3727;DHT22;1879;45.876;12.300;2022-10-16T15:31:20;23.30;99.90
3727;DHT22;1879;45.876;12.300;2022-10-16T15:33:49;23.30;99.90
3727;DHT22;1879;45.876;12.300;2022-10-16T15:36:25;23.20;99.90
3727;DHT22;1879;45.876;12.300;2022-10-16T15:38:52;23.10;99.90
3727;DHT22;1879;45.876;12.300;2022-10-16T15:41:21;22.90;99.90
3727;DHT22;1879;45.876;12.300;2022-10-16T15:43:49;22.90;99.90
3727;DHT22;1879;45.876;12.300;2022-10-16T15:46:18;22.80;99.90
3727;DHT22;1879;45.876;12.300;2022-10-16T15:48:46;22.70;99.90
3727;DHT22;1879;45.876;12.300;2022-10-16T15:51:13;22.60;99.90
3727;DHT22;1879;45.876;12.300;2022-10-16T15:53:41;22.50;99.90
3727;DHT22;1879;45.876;12.300;2022-10-16T15:56:09;22.40;99.90
3727;DHT22;1879;45.876;12.300;2022-10-16T15:58:38;22.20;99.90
3727;DHT22;1879;45.876;12.300;2022-10-16T16:01:05;22.10;99.90
3727;DHT22;1879;45.876;12.300;2022-10-16T16:03:35;22.10;99.90
3727;DHT22;1879;45.876;12.300;2022-10-16T16:06:07;21.90;99.90
3727;DHT22;1879;45.876;12.300;2022-10-16T16:08:35;21.80;99.90
3727;DHT22;1879;45.876;12.300;2022-10-16T16:11:05;21.70;99.90
3727;DHT22;1879;45.876;12.300;2022-10-16T16:13:33;21.60;99.90
3727;DHT22;1879;45.876;12.300;2022-10-16T16:16:01;21.40;99.90
3727;DHT22;1879;45.876;12.300;2022-10-16T16:18:31;21.40;99.90